Time;durP1;ratioP1;P1;durP2;ratioP2;P2;SDS_P1;SDS_P2;PMS_P1;PMS_P2;Temp;Humidity;BMP_temperature;BMP_pressure;BME280_temperature;BME280_humidity;BME280_pressure;Samples;Min_cycle;Max_cycle;Signal;HPM_P1;HPM_P2
2023/07/07 00:02:03;;;;;;;9.60;7.78;;;22.40;47.00;;;;;;6113831;23;114270;-79
2023/07/07 00:04:30;;;;;;;11.18;8.05;;;22.40;46.90;;;;;;6113818;22;114360;-78
2023/07/07 00:06:58;;;;;;;10.27;7.75;;;22.50;46.90;;;;;;6112555;23;114853;-79
2023/07/07 00:09:26;;;;;;;9.77;7.97;;;22.50;46.80;;;;;;6030256;23;118365;-78
2023/07/07 00:11:53;;;;;;;10.35;7.43;;;22.40;46.70;;;;;;6081458;23;114402;-78
2023/07/07 00:14:20;;;;;;;9.85;7.65;;;22.40;46.60;;;;;;6081822;23;114206;-80
2023/07/07 00:16:47;;;;;;;11.02;7.97;;;22.30;46.80;;;;;;6080374;23;115035;-78
2023/07/07 00:19:15;;;;;;;10.43;7.68;;;22.40;46.50;;;;;;6080095;23;114606;-79
2023/07/07 00:21:42;;;;;;;11.75;7.80;;;22.40;46.90;;;;;;6080874;23;114551;-79
2023/07/07 00:24:10;;;;;;;11.02;7.63;;;22.40;47.00;;;;;;6081213;23;114132;-79
2023/07/07 00:26:37;;;;;;;9.95;7.57;;;22.40;47.00;;;;;;6079850;23;116749;-79
2023/07/07 00:29:05;;;;;;;12.23;8.50;;;22.40;46.70;;;;;;6080328;23;116521;-79
2023/07/07 00:31:32;;;;;;;11.10;8.18;;;22.30;46.80;;;;;;6057028;23;114425;-79
2023/07/07 00:33:59;;;;;;;9.75;7.90;;;22.40;46.50;;;;;;6081042;23;114354;-79
2023/07/07 00:36:26;;;;;;;10.30;7.50;;;22.40;46.80;;;;;;6080004;23;116228;-78
2023/07/07 00:38:53;;;;;;;11.40;7.72;;;22.40;46.80;;;;;;6080629;23;115763;-78
2023/07/07 00:41:20;;;;;;;10.43;7.93;;;22.40;46.50;;;;;;6108405;23;114086;-79
2023/07/07 00:44:05;;;;;;;8.85;6.90;;;22.40;46.80;;;;;;6063389;23;114445;-78
2023/07/07 00:46:32;;;;;;;10.82;7.75;;;22.50;46.60;;;;;;6110281;23;114864;-79
2023/07/07 00:49:02;;;;;;;12.13;7.70;;;22.30;46.90;;;;;;6111204;22;114577;-79
2023/07/07 00:51:35;;;;;;;11.65;7.63;;;22.40;46.80;;;;;;6113450;23;114287;-79
2023/07/07 00:54:04;;;;;;;10.90;7.70;;;22.40;46.60;;;;;;6112132;23;114064;-79
2023/07/07 00:56:36;;;;;;;10.82;7.93;;;22.40;46.60;;;;;;6086154;23;118023;-79
2023/07/07 00:59:05;;;;;;;9.80;7.43;;;22.40;46.50;;;;;;6086421;23;114836;-78
2023/07/07 01:01:32;;;;;;;12.10;8.00;;;22.40;46.80;;;;;;6113409;23;114143;-78
2023/07/07 01:04:02;;;;;;;11.02;7.75;;;22.40;46.80;;;;;;6088198;23;114095;-78
2023/07/07 01:06:31;;;;;;;11.30;8.38;;;22.40;46.50;;;;;;6110801;23;114889;-79
2023/07/07 01:09:08;;;;;;;10.82;8.10;;;22.40;45.50;;;;;;6110797;23;114721;-79
2023/07/07 01:11:37;;;;;;;11.75;7.40;;;22.40;46.40;;;;;;6112867;23;114049;-79
2023/07/07 01:14:07;;;;;;;9.80;7.55;;;22.30;46.50;;;;;;6111912;23;114214;-79
2023/07/07 01:16:43;;;;;;;13.38;8.10;;;22.30;46.70;;;;;;6135572;22;116134;-79
2023/07/07 01:19:36;;;;;;;12.15;7.50;;;22.30;46.40;;;;;;6110829;23;114738;-79
2023/07/07 01:22:30;;;;;;;9.93;7.05;;;22.40;46.30;;;;;;6136696;22;114314;-79
2023/07/07 01:25:17;;;;;;;12.32;7.97;;;22.30;46.50;;;;;;6111850;23;114280;-79
2023/07/07 01:28:20;;;;;;;8.48;7.00;;;22.30;46.50;;;;;;6110314;23;115422;-78
2023/07/07 01:30:51;;;;;;;9.63;7.10;;;22.30;46.30;;;;;;6078993;23;114864;-78
2023/07/07 01:33:20;;;;;;;9.13;6.68;;;22.20;46.70;;;;;;6111394;23;114196;-79
2023/07/07 01:35:47;;;;;;;11.00;7.18;;;22.30;46.90;;;;;;6111661;23;114348;-78
2023/07/07 01:38:32;;;;;;;10.07;7.20;;;22.30;46.90;;;;;;6134904;22;115048;-79
2023/07/07 01:41:39;;;;;;;9.23;7.10;;;22.30;45.80;;;;;;6112022;23;114601;-79
2023/07/07 01:44:11;;;;;;;8.13;7.10;;;22.20;46.20;;;;;;6089350;23;114506;-78
2023/07/07 01:46:56;;;;;;;10.13;7.18;;;22.10;46.90;;;;;;6111289;23;115271;-78
2023/07/07 01:49:26;;;;;;;11.32;7.30;;;22.20;46.40;;;;;;6110113;23;114909;-78
2023/07/07 01:52:16;;;;;;;9.63;7.38;;;22.10;46.80;;;;;;6085936;23;114562;-78
2023/07/07 01:54:46;;;;;;;11.30;8.02;;;22.10;46.70;;;;;;6111601;23;114475;-78
2023/07/07 01:57:13;;;;;;;11.77;7.47;;;22.00;47.00;;;;;;6111975;23;114034;-78
2023/07/07 01:59:41;;;;;;;9.73;7.07;;;22.10;46.90;;;;;;6110201;23;114902;-78
2023/07/07 02:02:09;;;;;;;9.98;7.20;;;22.10;46.60;;;;;;6085699;23;115148;-78
2023/07/07 02:04:36;;;;;;;11.07;7.35;;;22.20;46.30;;;;;;6110592;23;114269;-77
2023/07/07 02:07:03;;;;;;;12.07;7.60;;;22.20;46.70;;;;;;6112794;23;114118;-78
2023/07/07 02:09:30;;;;;;;11.13;8.00;;;22.10;46.40;;;;;;6109886;22;117792;-77
2023/07/07 02:11:58;;;;;;;8.32;6.45;;;22.10;46.50;;;;;;6110299;23;116257;-78
2023/07/07 02:14:25;;;;;;;10.77;6.80;;;22.10;46.70;;;;;;6111331;23;114343;-78
2023/07/07 02:16:52;;;;;;;11.23;8.07;;;22.10;46.70;;;;;;6136248;22;114290;-78
2023/07/07 02:19:21;;;;;;;10.02;7.60;;;22.10;46.30;;;;;;6110104;23;115539;-78
2023/07/07 02:21:48;;;;;;;11.73;7.75;;;22.10;46.30;;;;;;6112054;23;115101;-78
2023/07/07 02:24:15;;;;;;;10.13;7.28;;;22.10;46.50;;;;;;6111237;23;114142;-78
2023/07/07 02:26:42;;;;;;;10.25;7.13;;;22.00;46.70;;;;;;6112327;23;114115;-78
2023/07/07 02:29:10;;;;;;;9.43;6.63;;;22.00;46.70;;;;;;6110834;22;117434;-78
2023/07/07 02:31:37;;;;;;;9.73;6.97;;;22.00;46.80;;;;;;6111543;23;114519;-78
2023/07/07 02:34:07;;;;;;;10.75;7.93;;;22.00;46.60;;;;;;6137555;22;114219;-78
2023/07/07 02:36:36;;;;;;;10.75;7.07;;;22.00;46.30;;;;;;6113809;23;114303;-77
2023/07/07 02:39:06;;;;;;;12.30;7.38;;;22.00;46.70;;;;;;6111436;23;116963;-78
2023/07/07 02:41:33;;;;;;;11.75;7.30;;;22.00;46.70;;;;;;6111479;23;114779;-78
2023/07/07 02:44:02;;;;;;;10.82;7.68;;;22.00;46.60;;;;;;6088449;23;114264;-78
2023/07/07 02:46:30;;;;;;;10.23;6.90;;;22.00;46.30;;;;;;6114500;22;114069;-78
2023/07/07 02:48:57;;;;;;;9.75;7.05;;;21.90;46.70;;;;;;6112990;22;114797;-78
2023/07/07 02:51:25;;;;;;;11.45;7.13;;;21.90;46.70;;;;;;6111544;23;117337;-78
2023/07/07 02:53:52;;;;;;;13.13;8.50;;;21.90;46.30;;;;;;6113304;23;114090;-78
2023/07/07 02:56:19;;;;;;;10.85;7.70;;;21.80;46.20;;;;;;6113915;23;114112;-77
2023/07/07 02:58:46;;;;;;;11.32;8.05;;;21.80;46.80;;;;;;6111441;23;114872;-78
2023/07/07 03:01:24;;;;;;;8.73;6.47;;;21.90;46.20;;;;;;6113699;22;114543;-77
2023/07/07 03:03:51;;;;;;;8.25;6.35;;;21.90;46.80;;;;;;6113977;23;114041;-77
2023/07/07 03:06:21;;;;;;;10.95;7.60;;;21.90;46.60;;;;;;6112898;22;114192;-78
2023/07/07 03:08:50;;;;;;;10.05;7.40;;;21.90;46.40;;;;;;6136648;22;114833;-78
2023/07/07 03:11:19;;;;;;;10.48;6.93;;;22.00;46.60;;;;;;6087452;23;117715;-78
2023/07/07 03:13:47;;;;;;;10.63;7.82;;;22.00;46.50;;;;;;6137612;22;114066;-78
2023/07/07 03:16:24;;;;;;;10.15;6.97;;;22.10;46.20;;;;;;6137300;22;114494;-78
2023/07/07 03:18:58;;;;;;;10.75;7.32;;;22.10;46.30;;;;;;6088354;23;114844;-79
2023/07/07 03:21:26;;;;;;;10.93;7.20;;;22.20;46.00;;;;;;6111421;22;114580;-78
2023/07/07 03:24:00;;;;;;;10.95;7.20;;;22.30;46.00;;;;;;6112458;23;114281;-79
2023/07/07 03:26:27;;;;;;;8.70;6.75;;;22.50;45.60;;;;;;6112416;23;114051;-78
2023/07/07 03:28:56;;;;;;;10.68;7.65;;;22.80;45.30;;;;;;6086713;23;114744;-78
2023/07/07 03:31:28;;;;;;;8.95;6.85;;;23.20;44.60;;;;;;6111325;23;115146;-79
2023/07/07 03:33:59;;;;;;;8.43;6.30;;;23.40;43.60;;;;;;6113930;22;114307;-78
2023/07/07 03:36:35;;;;;;;10.75;7.25;;;23.60;43.80;;;;;;6114239;22;114140;-78
2023/07/07 03:39:03;;;;;;;9.85;7.05;;;23.90;42.90;;;;;;6111130;23;117047;-78
2023/07/07 03:41:31;;;;;;;9.48;6.60;;;24.10;42.70;;;;;;6111422;23;114579;-78
2023/07/07 03:44:02;;;;;;;9.77;7.32;;;24.30;42.00;;;;;;6136634;22;114155;-78
2023/07/07 03:46:33;;;;;;;9.07;6.60;;;24.50;41.10;;;;;;6112412;23;114032;-79
2023/07/07 03:49:01;;;;;;;9.45;6.78;;;24.70;41.40;;;;;;6086958;23;114757;-78
2023/07/07 03:51:35;;;;;;;9.10;6.57;;;24.80;41.00;;;;;;6111269;23;114659;-78
2023/07/07 03:54:06;;;;;;;11.90;7.50;;;25.10;40.50;;;;;;6112384;23;114151;-78
2023/07/07 03:56:35;;;;;;;9.50;6.47;;;25.20;39.60;;;;;;6137422;22;114357;-78
2023/07/07 03:59:03;;;;;;;10.98;7.13;;;25.30;40.10;;;;;;6112590;23;114843;-78
2023/07/07 04:01:30;;;;;;;9.07;6.40;;;25.40;39.80;;;;;;6136675;22;114493;-79
2023/07/07 04:03:58;;;;;;;14.57;7.65;;;25.60;39.60;;;;;;6112549;22;114098;-78
2023/07/07 04:06:25;;;;;;;12.73;8.63;;;25.60;38.40;;;;;;6113756;22;114362;-78
2023/07/07 04:08:55;;;;;;;9.15;6.95;;;25.50;38.30;;;;;;6135444;22;114900;-78
2023/07/07 04:11:24;;;;;;;11.73;7.32;;;25.30;39.20;;;;;;6112622;23;114569;-78
2023/07/07 04:13:52;;;;;;;10.55;6.95;;;25.30;39.50;;;;;;6137277;22;114340;-78
2023/07/07 04:16:23;;;;;;;13.15;8.20;;;25.30;39.40;;;;;;6113798;23;114342;-78
2023/07/07 04:18:53;;;;;;;11.60;7.78;;;25.30;38.90;;;;;;6135833;22;114874;-78
2023/07/07 04:21:26;;;;;;;12.48;7.53;;;25.20;38.90;;;;;;6111140;23;114653;-78
2023/07/07 04:23:54;;;;;;;11.48;8.05;;;25.10;38.80;;;;;;6113706;23;113871;-78
2023/07/07 04:26:22;;;;;;;10.40;7.80;;;25.10;39.00;;;;;;6113078;22;114197;-79
2023/07/07 04:28:52;;;;;;;11.95;8.25;;;25.00;39.00;;;;;;6110927;23;114855;-79
2023/07/07 04:31:23;;;;;;;12.55;8.70;;;24.90;38.80;;;;;;6112612;23;115087;-79
2023/07/07 04:33:50;;;;;;;15.88;7.90;;;24.80;38.90;;;;;;6111180;23;114645;-79
2023/07/07 04:36:17;;;;;;;12.57;8.10;;;24.70;39.70;;;;;;6112070;23;114510;-79
2023/07/07 04:38:45;;;;;;;13.40;8.75;;;24.70;39.60;;;;;;6110931;23;114949;-79
2023/07/07 04:41:22;;;;;;;11.40;7.90;;;24.60;39.30;;;;;;6110977;23;114682;-79
2023/07/07 04:43:51;;;;;;;16.42;9.65;;;24.60;39.80;;;;;;6088749;23;114536;-79
2023/07/07 04:46:27;;;;;;;16.48;9.80;;;24.50;39.90;;;;;;6113504;23;114129;-79
2023/07/07 04:48:55;;;;;;;12.90;7.82;;;24.50;39.60;;;;;;6111205;23;115380;-79
2023/07/07 04:51:22;;;;;;;15.90;9.13;;;24.40;40.10;;;;;;6112861;23;114787;-79
2023/07/07 04:53:49;;;;;;;10.88;7.30;;;24.40;39.90;;;;;;6113547;23;113992;-79
2023/07/07 04:56:18;;;;;;;17.13;10.18;;;24.30;40.90;;;;;;6113011;23;114023;-79
2023/07/07 04:58:50;;;;;;;13.90;8.50;;;24.30;40.10;;;;;;6135460;22;115393;-78
2023/07/07 05:01:19;;;;;;;12.20;8.73;;;24.30;40.60;;;;;;6112452;23;114535;-79
2023/07/07 05:03:49;;;;;;;14.75;9.93;;;24.30;40.60;;;;;;6112072;23;114332;-79
2023/07/07 05:06:16;;;;;;;16.38;9.45;;;24.30;40.40;;;;;;6111982;23;114066;-78
2023/07/07 05:08:43;;;;;;;20.65;11.63;;;24.30;40.60;;;;;;6110805;23;115333;-79
2023/07/07 05:11:11;;;;;;;17.08;10.82;;;24.30;40.20;;;;;;6112343;23;114583;-78
2023/07/07 05:13:38;;;;;;;12.88;8.95;;;24.30;40.60;;;;;;6113402;23;114270;-78
2023/07/07 05:16:08;;;;;;;14.95;9.95;;;24.40;40.70;;;;;;6113840;23;114425;-77
2023/07/07 05:18:35;;;;;;;18.77;10.55;;;24.30;40.30;;;;;;6112186;23;114822;-78
2023/07/07 05:21:02;;;;;;;19.85;10.38;;;24.20;40.60;;;;;;6112202;23;114614;-78
2023/07/07 05:23:34;;;;;;;17.05;10.95;;;24.20;40.70;;;;;;6111475;23;114218;-78
2023/07/07 05:26:01;;;;;;;17.08;9.85;;;24.00;40.80;;;;;;6111969;23;114206;-77
2023/07/07 05:28:28;;;;;;;17.08;10.18;;;23.90;41.30;;;;;;6111855;23;114883;-77
2023/07/07 05:30:56;;;;;;;19.58;9.80;;;24.00;41.40;;;;;;6085754;23;117942;-79
2023/07/07 05:33:23;;;;;;;18.75;10.18;;;24.00;41.40;;;;;;6111369;23;114687;-78
2023/07/07 05:35:52;;;;;;;19.23;11.07;;;24.20;41.30;;;;;;6111969;22;114214;-78
2023/07/07 05:38:21;;;;;;;17.08;10.00;;;24.30;41.10;;;;;;6086034;23;116125;-78
2023/07/07 05:40:48;;;;;;;23.30;11.13;;;24.30;41.20;;;;;;6111263;22;114628;-78
2023/07/07 05:43:16;;;;;;;15.05;10.48;;;24.40;40.90;;;;;;6112929;23;114101;-78
2023/07/07 05:45:43;;;;;;;16.48;9.40;;;24.50;40.70;;;;;;6113135;23;114243;-78
2023/07/07 05:48:11;;;;;;;19.20;10.02;;;24.60;40.90;;;;;;6109854;23;115209;-78
2023/07/07 05:50:39;;;;;;;16.83;9.18;;;24.80;40.70;;;;;;6112776;23;115104;-79
2023/07/07 05:53:07;;;;;;;15.05;9.32;;;24.80;40.50;;;;;;6111481;23;114414;-79
2023/07/07 05:55:34;;;;;;;15.50;9.20;;;24.90;40.10;;;;;;6111584;23;114123;-79
2023/07/07 05:58:03;;;;;;;15.25;7.93;;;24.90;39.90;;;;;;6111867;23;115310;-79
2023/07/07 06:00:31;;;;;;;17.55;9.23;;;25.00;40.00;;;;;;6111592;23;114770;-79
2023/07/07 06:02:59;;;;;;;17.30;9.10;;;25.20;39.60;;;;;;6111645;23;114388;-78
2023/07/07 06:05:27;;;;;;;13.95;8.48;;;25.30;39.30;;;;;;6111955;23;114305;-79
2023/07/07 06:07:55;;;;;;;13.38;8.50;;;25.40;39.00;;;;;;6111126;23;116144;-79
2023/07/07 06:10:22;;;;;;;17.77;9.55;;;25.40;39.20;;;;;;6111786;23;114733;-78
2023/07/07 06:12:49;;;;;;;15.73;9.27;;;25.50;38.70;;;;;;6113674;23;114168;-79
2023/07/07 06:15:16;;;;;;;14.50;8.88;;;25.50;39.20;;;;;;6112822;23;114508;-78
2023/07/07 06:17:44;;;;;;;13.85;8.77;;;25.50;39.40;;;;;;6113452;23;114973;-78
2023/07/07 06:20:12;;;;;;;13.23;8.70;;;25.60;39.30;;;;;;6111887;23;114657;-78
2023/07/07 06:22:39;;;;;;;12.65;8.45;;;25.60;39.00;;;;;;6114324;23;114098;-78
2023/07/07 06:25:07;;;;;;;14.18;8.48;;;25.70;38.80;;;;;;6114656;23;114298;-78
2023/07/07 06:27:34;;;;;;;17.45;9.40;;;25.70;39.10;;;;;;6113024;23;115125;-78
2023/07/07 06:30:01;;;;;;;12.07;8.25;;;25.70;39.00;;;;;;6113994;23;114662;-79
2023/07/07 06:32:29;;;;;;;13.93;9.00;;;25.80;38.90;;;;;;6113918;22;114298;-78
2023/07/07 06:34:56;;;;;;;13.50;9.20;;;25.80;38.90;;;;;;6114364;23;114391;-78
2023/07/07 06:37:23;;;;;;;13.90;9.20;;;25.90;38.90;;;;;;6112506;23;114887;-77
2023/07/07 06:39:51;;;;;;;14.85;8.45;;;25.90;38.60;;;;;;6111891;23;114579;-78
2023/07/07 06:42:18;;;;;;;14.40;8.80;;;25.90;38.70;;;;;;6114526;22;113986;-79
2023/07/07 06:44:55;;;;;;;13.75;8.82;;;26.00;38.60;;;;;;6138131;22;113965;-77
2023/07/07 06:47:23;;;;;;;11.75;8.02;;;26.10;38.30;;;;;;6113235;23;114907;-79
2023/07/07 06:49:51;;;;;;;12.15;7.45;;;26.10;38.40;;;;;;6113252;22;115830;-78
2023/07/07 06:52:19;;;;;;;11.77;7.32;;;26.20;38.00;;;;;;6112707;23;114186;-79
2023/07/07 06:54:46;;;;;;;10.63;7.68;;;26.30;37.70;;;;;;6114843;23;114076;-77
2023/07/07 06:57:13;;;;;;;12.15;7.72;;;26.30;37.00;;;;;;6087446;23;115532;-78
2023/07/07 06:59:41;;;;;;;10.90;7.53;;;26.30;37.50;;;;;;6112967;23;115062;-78
2023/07/07 07:02:11;;;;;;;10.50;6.70;;;26.40;37.30;;;;;;6113664;23;114200;-79
2023/07/07 07:04:41;;;;;;;13.55;7.30;;;26.50;36.70;;;;;;6113011;23;114289;-78
2023/07/07 07:07:08;;;;;;;13.75;7.53;;;26.50;36.60;;;;;;6113523;23;115212;-78
2023/07/07 07:09:35;;;;;;;10.70;7.05;;;26.40;36.60;;;;;;6111639;23;114813;-80
2023/07/07 07:12:03;;;;;;;10.38;7.10;;;26.50;37.00;;;;;;6114336;23;114155;-79
2023/07/07 07:14:30;;;;;;;11.07;7.43;;;26.60;37.00;;;;;;6114144;23;114706;-78
2023/07/07 07:16:57;;;;;;;11.13;6.40;;;26.50;36.90;;;;;;6113838;22;115521;-79
2023/07/07 07:19:25;;;;;;;9.90;6.88;;;26.60;36.70;;;;;;6113094;23;114649;-78
2023/07/07 07:21:52;;;;;;;9.93;6.13;;;26.60;37.10;;;;;;6113946;23;114255;-79
2023/07/07 07:24:19;;;;;;;11.32;7.32;;;26.60;36.80;;;;;;6112737;23;114175;-77
2023/07/07 07:26:48;;;;;;;12.02;5.70;;;26.60;36.70;;;;;;6112137;23;114965;-79
2023/07/07 07:29:15;;;;;;;10.50;6.68;;;26.60;36.60;;;;;;6112961;23;115109;-77
2023/07/07 07:31:43;;;;;;;10.63;6.40;;;26.60;36.30;;;;;;6137262;22;114286;-78
2023/07/07 07:34:25;;;;;;;9.98;6.10;;;26.70;36.30;;;;;;6112229;23;114387;-79
2023/07/07 07:36:56;;;;;;;8.77;5.95;;;26.60;36.40;;;;;;6113180;23;116072;-79
2023/07/07 07:39:25;;;;;;;11.20;7.32;;;26.60;36.30;;;;;;6111594;23;115196;-78
2023/07/07 07:41:53;;;;;;;13.20;7.18;;;26.60;36.30;;;;;;6112878;23;114085;-78
2023/07/07 07:44:22;;;;;;;12.25;6.90;;;26.60;37.20;;;;;;6114412;23;114231;-78
2023/07/07 07:46:50;;;;;;;10.30;6.07;;;26.60;36.30;;;;;;6113128;23;114861;-79
2023/07/07 07:49:17;;;;;;;9.70;6.43;;;26.60;36.30;;;;;;6111418;23;116799;-78
2023/07/07 07:51:44;;;;;;;10.50;6.20;;;26.60;36.90;;;;;;6113965;23;114303;-78
2023/07/07 07:54:12;;;;;;;8.10;5.18;;;26.70;36.10;;;;;;6114032;23;114232;-78
2023/07/07 07:56:39;;;;;;;7.68;5.00;;;26.70;35.20;;;;;;6112972;23;114818;-79
2023/07/07 07:59:06;;;;;;;9.20;5.68;;;26.70;34.80;;;;;;6111678;22;114571;-79
2023/07/07 08:01:34;;;;;;;7.35;4.85;;;26.80;34.40;;;;;;6112956;23;114116;-78
2023/07/07 08:04:03;;;;;;;9.25;5.88;;;26.70;35.20;;;;;;6112881;23;114459;-78
2023/07/07 08:06:31;;;;;;;8.93;5.38;;;26.80;34.60;;;;;;6111483;23;114770;-79
2023/07/07 08:08:58;;;;;;;9.40;4.95;;;26.80;33.90;;;;;;6112003;23;115902;-78
2023/07/07 08:11:47;;;;;;;9.07;5.00;;;26.70;34.10;;;;;;6114079;22;114158;-79
2023/07/07 08:14:16;;;;;;;8.80;5.28;;;26.80;33.70;;;;;;6114227;23;114134;-77
2023/07/07 08:16:49;;;;;;;8.30;5.15;;;26.60;34.10;;;;;;6112251;23;114857;-78
2023/07/07 08:19:16;;;;;;;10.00;4.32;;;26.60;35.00;;;;;;6112861;23;115925;-78
2023/07/07 08:21:47;;;;;;;8.57;4.22;;;26.70;34.30;;;;;;6112980;23;114515;-78
2023/07/07 08:24:14;;;;;;;7.65;3.92;;;26.70;33.30;;;;;;6114051;22;114004;-78
2023/07/07 08:26:41;;;;;;;8.45;4.72;;;26.60;32.80;;;;;;6110887;23;114853;-79
2023/07/07 08:29:09;;;;;;;8.18;4.63;;;26.70;33.00;;;;;;6112440;23;114584;-77
2023/07/07 08:31:51;;;;;;;8.13;4.20;;;26.70;32.40;;;;;;6112221;23;114280;-79
2023/07/07 08:34:19;;;;;;;7.75;4.30;;;26.60;32.50;;;;;;6114026;23;114174;-79
2023/07/07 08:36:47;;;;;;;9.50;4.00;;;26.30;33.10;;;;;;6112399;23;114929;-77
2023/07/07 08:39:17;;;;;;;9.35;5.03;;;26.30;32.70;;;;;;6112429;23;115895;-78
2023/07/07 08:41:53;;;;;;;6.85;3.72;;;26.10;34.20;;;;;;6111650;23;114395;-78
2023/07/07 08:44:23;;;;;;;6.65;4.07;;;26.20;33.00;;;;;;6112301;23;114403;-79
2023/07/07 08:46:53;;;;;;;7.93;4.40;;;26.20;33.30;;;;;;6086327;23;118439;-79
2023/07/07 08:49:24;;;;;;;6.90;3.90;;;26.10;33.40;;;;;;6112787;23;114539;-79
2023/07/07 08:52:12;;;;;;;8.40;4.30;;;26.10;32.80;;;;;;6112482;23;114141;-78
2023/07/07 08:55:16;;;;;;;11.15;4.72;;;26.30;33.60;;;;;;6136747;22;114206;-79
2023/07/07 08:58:18;;;;;;;7.10;3.83;;;26.30;32.90;;;;;;6099509;23;114997;-78
2023/07/07 09:01:01;;;;;;;4.90;3.28;;;26.30;32.10;;;;;;6112003;23;114579;-79
2023/07/07 09:03:56;;;;;;;5.40;3.25;;;26.30;31.90;;;;;;6113851;22;114217;-79
2023/07/07 09:06:27;;;;;;;7.32;3.88;;;26.40;32.20;;;;;;6113458;23;114298;-79
2023/07/07 09:09:07;;;;;;;6.45;3.70;;;26.30;32.10;;;;;;6111609;23;115016;-79
2023/07/07 09:11:43;;;;;;;6.82;3.58;;;26.30;31.80;;;;;;6112447;23;115101;-77
2023/07/07 09:14:11;;;;;;;5.82;2.90;;;26.20;32.40;;;;;;6113550;23;114343;-78
2023/07/07 09:16:39;;;;;;;4.82;3.25;;;26.20;31.40;;;;;;6112280;23;114288;-78
2023/07/07 09:19:13;;;;;;;5.50;3.35;;;26.20;30.50;;;;;;6110779;23;115322;-79
2023/07/07 09:21:47;;;;;;;7.88;3.58;;;26.20;32.30;;;;;;6110876;23;114547;-78
2023/07/07 09:24:34;;;;;;;7.45;3.45;;;26.30;31.50;;;;;;6112176;23;114143;-79
2023/07/07 09:27:11;;;;;;;5.25;2.50;;;26.40;31.50;;;;;;6111806;23;114328;-79
2023/07/07 09:29:38;;;;;;;5.13;2.92;;;26.30;29.00;;;;;;6110821;23;114832;-78
2023/07/07 09:32:08;;;;;;;4.75;2.53;;;26.20;29.80;;;;;;6111189;23;114628;-78
2023/07/07 09:34:35;;;;;;;5.38;2.83;;;26.20;30.40;;;;;;6111213;23;114083;-78
2023/07/07 09:37:28;;;;;;;5.15;2.95;;;26.20;29.40;;;;;;6112217;23;114135;-78
2023/07/07 09:40:32;;;;;;;5.38;2.70;;;26.30;30.10;;;;;;6088453;23;115400;-78
2023/07/07 09:43:26;;;;;;;5.63;3.10;;;26.20;30.70;;;;;;6052275;23;115976;-78
2023/07/07 09:46:24;;;;;;;6.20;2.97;;;26.20;30.60;;;;;;6092641;23;114102;-78
2023/07/07 09:49:02;;;;;;;4.88;2.70;;;26.10;30.60;;;;;;6114695;23;114529;-78
2023/07/07 09:51:35;;;;;;;5.10;2.83;;;26.10;30.50;;;;;;6112434;23;114822;-78
2023/07/07 09:54:02;;;;;;;7.97;3.33;;;26.20;30.00;;;;;;6115072;23;114482;-77
2023/07/07 09:56:37;;;;;;;4.85;2.97;;;26.30;29.60;;;;;;6115689;23;114261;-79
2023/07/07 09:59:13;;;;;;;5.50;2.85;;;26.30;29.70;;;;;;6090466;23;114109;-78
2023/07/07 10:01:42;;;;;;;4.40;2.70;;;26.30;30.00;;;;;;6112938;23;114760;-79
2023/07/07 10:04:14;;;;;;;4.38;2.58;;;26.30;30.10;;;;;;6112212;23;114325;-77
2023/07/07 10:06:53;;;;;;;5.18;2.70;;;26.30;28.90;;;;;;6115196;22;114398;-78
2023/07/07 10:09:20;;;;;;;4.63;2.50;;;26.30;28.60;;;;;;6113578;23;114385;-78
2023/07/07 10:11:47;;;;;;;5.20;3.25;;;26.30;28.80;;;;;;6113703;23;114947;-78
2023/07/07 10:14:34;;;;;;;5.53;2.80;;;26.30;29.40;;;;;;6112027;23;114524;-78
2023/07/07 10:17:05;;;;;;;8.13;3.28;;;26.20;29.80;;;;;;6114017;23;114368;-78
2023/07/07 10:20:05;;;;;;;5.45;2.80;;;26.10;29.20;;;;;;6114711;22;114321;-77
2023/07/07 10:22:35;;;;;;;4.95;3.03;;;26.10;30.70;;;;;;6079693;23;114951;-77
2023/07/07 10:25:05;;;;;;;4.03;2.92;;;26.10;30.40;;;;;;6111770;23;116359;-76
2023/07/07 10:27:33;;;;;;;5.72;2.90;;;26.20;30.10;;;;;;6113645;23;113966;-79
2023/07/07 10:30:03;;;;;;;4.88;2.85;;;26.20;30.20;;;;;;6114612;23;114358;-79
2023/07/07 10:32:31;;;;;;;4.60;2.83;;;26.20;30.10;;;;;;6111429;23;114887;-79
2023/07/07 10:34:59;;;;;;;5.95;2.95;;;26.10;30.30;;;;;;6111368;23;115812;-78
2023/07/07 10:37:34;;;;;;;5.60;2.75;;;26.10;30.20;;;;;;6114422;23;114065;-79
2023/07/07 10:40:02;;;;;;;4.75;2.97;;;26.20;30.20;;;;;;6112937;23;114261;-78
2023/07/07 10:42:31;;;;;;;5.60;3.00;;;26.10;29.80;;;;;;6113094;23;116069;-77
2023/07/07 10:44:59;;;;;;;4.80;3.05;;;26.10;30.20;;;;;;6112100;23;114501;-78
2023/07/07 10:47:28;;;;;;;5.78;2.85;;;26.10;29.90;;;;;;6113053;23;114087;-78
2023/07/07 10:49:56;;;;;;;6.30;3.42;;;26.00;30.10;;;;;;6115810;23;114392;-77
2023/07/07 10:52:30;;;;;;;4.43;3.00;;;25.90;30.50;;;;;;6112323;23;115081;-77
2023/07/07 10:55:09;;;;;;;4.28;3.00;;;25.90;30.60;;;;;;6135622;22;114616;-78
2023/07/07 10:57:48;;;;;;;4.88;2.95;;;25.90;30.10;;;;;;6114224;23;114222;-78
2023/07/07 11:00:23;;;;;;;4.88;2.95;;;26.00;30.50;;;;;;6112780;23;114219;-76
2023/07/07 11:03:04;;;;;;;6.13;3.20;;;26.10;30.20;;;;;;6111584;23;114761;-76
2023/07/07 11:05:46;;;;;;;4.63;3.20;;;26.30;30.40;;;;;;6113045;23;114501;-77
2023/07/07 11:08:42;;;;;;;6.80;3.40;;;26.40;30.40;;;;;;6113410;23;114050;-78
2023/07/07 11:11:31;;;;;;;6.03;3.25;;;26.50;29.60;;;;;;6113321;23;114282;-78
2023/07/07 11:14:08;;;;;;;5.55;3.38;;;26.30;30.10;;;;;;6112048;23;116700;-78
2023/07/07 11:17:08;;;;;;;6.38;3.60;;;26.30;29.70;;;;;;6111771;23;115368;-78
2023/07/07 11:19:45;;;;;;;7.50;3.70;;;26.00;29.70;;;;;;6112898;23;114218;-78
2023/07/07 11:22:25;;;;;;;8.07;3.50;;;25.80;30.60;;;;;;6112919;22;114060;-78
2023/07/07 11:25:02;;;;;;;7.65;3.92;;;25.60;31.10;;;;;;6111517;23;114857;-78
2023/07/07 11:27:44;;;;;;;4.75;2.90;;;25.60;31.10;;;;;;6111361;23;114565;-77
2023/07/07 11:30:49;;;;;;;6.40;3.50;;;25.60;31.30;;;;;;6114305;23;114177;-78
2023/07/07 11:33:31;;;;;;;6.07;3.80;;;25.70;31.10;;;;;;6101021;23;114141;-78
2023/07/07 11:36:03;;;;;;;5.30;3.53;;;25.70;31.20;;;;;;6083490;23;114821;-78
2023/07/07 11:38:36;;;;;;;5.70;3.42;;;25.80;31.50;;;;;;6083647;23;114687;-77
2023/07/07 11:41:24;;;;;;;4.15;3.17;;;25.80;31.50;;;;;;6084389;23;114230;-78
2023/07/07 11:44:36;;;;;;;6.43;3.40;;;25.90;31.70;;;;;;6083306;23;114178;-77
2023/07/07 11:47:13;;;;;;;6.75;3.20;;;25.90;31.60;;;;;;6024009;23;115000;-76
2023/07/07 11:49:50;;;;;;;6.13;3.70;;;25.90;31.40;;;;;;6035189;23;115940;-78
2023/07/07 11:52:51;;;;;;;7.60;3.60;;;25.90;31.60;;;;;;6059234;23;114507;-78
2023/07/07 11:55:38;;;;;;;5.63;3.25;;;26.00;32.00;;;;;;6084175;23;114261;-78
2023/07/07 11:58:28;;;;;;;5.25;3.80;;;25.80;32.00;;;;;;6057241;23;116275;-77
2023/07/07 12:01:13;;;;;;;6.22;3.75;;;25.80;31.80;;;;;;6083119;23;114586;-78
2023/07/07 12:04:05;;;;;;;5.57;3.80;;;25.80;31.80;;;;;;6082890;23;114189;-78
2023/07/07 12:06:45;;;;;;;5.35;3.70;;;25.90;31.40;;;;;;6039613;23;114461;-78
2023/07/07 12:09:17;;;;;;;5.35;3.70;;;25.90;31.00;;;;;;6033235;23;118071;-78
2023/07/07 12:11:53;;;;;;;5.72;3.45;;;25.90;31.60;;;;;;6057264;23;114531;-78
2023/07/07 12:14:23;;;;;;;4.90;3.67;;;25.90;31.70;;;;;;6034626;23;114133;-77
2023/07/07 12:16:50;;;;;;;5.18;3.83;;;26.00;31.60;;;;;;6058491;23;114157;-77
2023/07/07 12:19:39;;;;;;;6.50;3.97;;;25.90;31.50;;;;;;6032724;23;114952;-77
2023/07/07 12:22:14;;;;;;;6.75;3.47;;;25.90;31.50;;;;;;6035923;23;114914;-78
2023/07/07 12:25:14;;;;;;;4.78;3.30;;;25.90;31.20;;;;;;6035429;23;114242;-79
2023/07/07 12:27:43;;;;;;;6.57;3.28;;;25.90;32.00;;;;;;6058542;23;114498;-79
2023/07/07 12:30:20;;;;;;;5.63;3.83;;;25.80;31.40;;;;;;6033200;23;114909;-78
2023/07/07 12:32:48;;;;;;;6.20;3.50;;;25.90;31.90;;;;;;6066754;23;116133;-77
2023/07/07 12:35:17;;;;;;;5.90;3.40;;;26.00;31.70;;;;;;6113850;22;114210;-78
2023/07/07 12:37:44;;;;;;;7.03;3.42;;;26.20;31.80;;;;;;6113488;23;114441;-78
2023/07/07 12:40:13;;;;;;;6.95;4.00;;;26.30;31.50;;;;;;6112320;22;114832;-77
2023/07/07 12:42:40;;;;;;;4.93;3.40;;;26.40;31.40;;;;;;6114244;23;114628;-77
2023/07/07 12:45:29;;;;;;;5.15;3.13;;;26.60;31.10;;;;;;6113676;23;114650;-77
2023/07/07 12:48:06;;;;;;;8.05;3.95;;;26.50;31.30;;;;;;6116659;22;114252;-78
2023/07/07 12:50:38;;;;;;;5.63;3.70;;;26.50;31.30;;;;;;6111569;23;114751;-77
2023/07/07 12:53:23;;;;;;;6.20;3.65;;;26.50;30.90;;;;;;6112603;23;114031;-78
2023/07/07 12:56:01;;;;;;;6.70;3.10;;;26.60;31.30;;;;;;6114434;23;114418;-76
2023/07/07 12:58:49;;;;;;;5.15;3.42;;;26.30;31.00;;;;;;6087980;23;114359;-77